Home > Products > Valid Products > TAF

000
FTUS41 KPHI 031449 AAA
TAFPHL
TAF AMD
KPHL 031449Z 0315/0418 23011KT P6SM FEW100 SCT250
     FM031600 23010G18KT P6SM SCT050
     FM040000 22008KT P6SM FEW060 BKN200
     FM041500 26010G20KT P6SM SCT050=



000
FTUS41 KPHI 031128
TAFPHL
TAF
KPHL 031128Z 0312/0418 23006KT P6SM SKC
     FM031600 23010G18KT P6SM SCT050
     FM040000 22008KT P6SM FEW060 BKN200
     FM041500 26010G20KT P6SM SCT050=



000
FTUS41 KPHI 031128
TAFMIV
TAF
KMIV 031128Z 0312/0412 VRB02KT P6SM SKC
     FM031500 23009KT P6SM SCT050
     FM040000 19005KT P6SM FEW060 BKN200
     FM040900 VRB03KT 6SM BR BKN200=



000
FTUS41 KPHI 031128
TAFTTN
TAF
KTTN 031128Z 0312/0412 VRB02KT P6SM SKC
     FM031400 22006KT P6SM SCT250
     FM031600 23010G18KT P6SM SCT050
     FM032200 21008KT P6SM FEW050 BKN200
     FM040600 VRB03KT P6SM FEW060 BKN200=



000
FTUS41 KPHI 031128
TAFPNE
TAF
KPNE 031128Z 0312/0412 VRB03KT P6SM SKC
     FM031400 23006KT P6SM SCT250
     FM031600 22010G18KT P6SM SCT050
     FM040000 20006KT P6SM FEW060 BKN200=



000
FTUS41 KPHI 031128
TAFACY
TAF
KACY 031128Z 0312/0412 VRB03KT P6SM SKC
     FM031500 22008KT P6SM FEW050
     FM031800 20012G20KT P6SM SCT050
     FM040000 19008KT P6SM FEW060 BKN200=



000
FTUS41 KPHI 031128
TAFRDG
TAF
KRDG 031128Z 0312/0412 VRB02KT P6SM SKC
     FM031400 22006KT P6SM SCT250
     FM031600 22010G18KT P6SM SCT050
     FM032200 20006KT P6SM FEW050 BKN200
     FM040300 VRB02KT P6SM FEW050 BKN100=



000
FTUS41 KPHI 031128
TAFABE
TAF
KABE 031128Z 0312/0412 VRB02KT P6SM SCT070
     FM031400 23006KT P6SM SCT250
     FM031600 22010G18KT P6SM SCT050
     FM040000 20006KT P6SM FEW060 BKN200
     FM040600 VRB02KT P6SM FEW060 BKN100=



000
FTUS41 KPHI 031128
TAFILG
TAF
KILG 031128Z 0312/0412 21004KT P6SM SCT250
     FM031600 21011G18KT P6SM SCT050
     FM040000 19008KT P6SM FEW060 BKN200=



000
FTUS41 KPHI 031128
TAFACY
TAF
KACY 031128Z 0312/0412 VRB03KT P6SM SKC
     FM031500 22008KT P6SM FEW050
     FM031800 20012G20KT P6SM SCT050
     FM040000 19008KT P6SM FEW060 BKN200=



000
FTUS41 KPHI 031128
TAFPHL
TAF
KPHL 031128Z 0312/0418 23006KT P6SM SKC
     FM031600 23010G18KT P6SM SCT050
     FM040000 22008KT P6SM FEW060 BKN200
     FM041500 26010G20KT P6SM SCT050=



000
FTUS41 KPHI 031128
TAFMIV
TAF
KMIV 031128Z 0312/0412 VRB02KT P6SM SKC
     FM031500 23009KT P6SM SCT050
     FM040000 19005KT P6SM FEW060 BKN200
     FM040900 VRB03KT 6SM BR BKN200=



000
FTUS41 KPHI 031128
TAFRDG
TAF
KRDG 031128Z 0312/0412 VRB02KT P6SM SKC
     FM031400 22006KT P6SM SCT250
     FM031600 22010G18KT P6SM SCT050
     FM032200 20006KT P6SM FEW050 BKN200
     FM040300 VRB02KT P6SM FEW050 BKN100=



000
FTUS41 KPHI 031128
TAFPNE
TAF
KPNE 031128Z 0312/0412 VRB03KT P6SM SKC
     FM031400 23006KT P6SM SCT250
     FM031600 22010G18KT P6SM SCT050
     FM040000 20006KT P6SM FEW060 BKN200=



000
FTUS41 KPHI 031128
TAFTTN
TAF
KTTN 031128Z 0312/0412 VRB02KT P6SM SKC
     FM031400 22006KT P6SM SCT250
     FM031600 23010G18KT P6SM SCT050
     FM032200 21008KT P6SM FEW050 BKN200
     FM040600 VRB03KT P6SM FEW060 BKN200=



000
FTUS41 KPHI 031128
TAFILG
TAF
KILG 031128Z 0312/0412 21004KT P6SM SCT250
     FM031600 21011G18KT P6SM SCT050
     FM040000 19008KT P6SM FEW060 BKN200=



000
FTUS41 KPHI 031128
TAFABE
TAF
KABE 031128Z 0312/0412 VRB02KT P6SM SCT070
     FM031400 23006KT P6SM SCT250
     FM031600 22010G18KT P6SM SCT050
     FM040000 20006KT P6SM FEW060 BKN200
     FM040600 VRB02KT P6SM FEW060 BKN100=



000
FTUS41 KPHI 030855 AAA
TAFPHL
TAF AMD
KPHL 030855Z 0309/0412 20006KT P6SM SKC
     FM031200 23006KT P6SM SCT250
     FM031600 23010G18KT P6SM SCT050
     FM040000 22008KT P6SM BKN200=



000
FTUS41 KPHI 030532
TAFPNE
TAF
KPNE 030532Z 0306/0406 22004KT P6SM SKC
     FM031300 23006KT P6SM SCT250
     FM031600 22010G18KT P6SM SCT050
     FM040000 20008KT P6SM BKN200=



000
FTUS41 KPHI 030532
TAFILG
TAF
KILG 030532Z 0306/0406 VRB03KT P6SM SKC
     FM031200 21005KT P6SM SCT250
     FM031600 21011G18KT P6SM SCT050
     FM040000 19008KT P6SM BKN200=



000
FTUS41 KPHI 030532
TAFPHL
TAF
KPHL 030532Z 0306/0412 22004KT P6SM SKC
     FM031200 23006KT P6SM SCT250
     FM031600 23010G18KT P6SM SCT050
     FM040000 22008KT P6SM BKN200=



000
FTUS41 KPHI 030532
TAFABE
TAF
KABE 030532Z 0306/0406 VRB02KT P6SM SCT070
     FM031400 23006KT P6SM SCT250
     FM031600 22010G18KT P6SM SCT050
     FM040000 20006KT P6SM BKN200=



000
FTUS41 KPHI 030532
TAFMIV
TAF
KMIV 030532Z 0306/0406 VRB02KT P6SM SKC
     FM031500 23009KT P6SM SCT050
     FM040000 19005KT P6SM BKN200=



000
FTUS41 KPHI 030532
TAFACY
TAF
KACY 030532Z 0306/0406 18005KT P6SM SKC
     FM031500 22008KT P6SM FEW050
     FM031800 20012G20KT P6SM SCT050
     FM040000 19008KT P6SM BKN200=



000
FTUS41 KPHI 030532
TAFTTN
TAF

FM032200
 21008KT P6SM FEW050 BKN200=



000
FTUS41 KPHI 030532
TAFRDG
TAF
KRDG 030532Z 0306/0406 VRB02KT P6SM SCT070
     FM031400 22006KT P6SM SCT250
     FM031600 22010G18KT P6SM SCT050
     FM032200 20006KT P6SM FEW050 BKN200=



000
FTUS41 KPHI 030532
TAFTTN
TAF
KTTN 030532Z 0306/0406 VRB02KT P6SM SKC
     FM031300 22006KT P6SM SCT250
     FM031600 23010G18KT P6SM SCT050=



000
FTUS41 KPHI 030532
TAFPNE
TAF
KPNE 030532Z 0306/0406 22004KT P6SM SKC
     FM031300 23006KT P6SM SCT250
     FM031600 22010G18KT P6SM SCT050
     FM040000 20008KT P6SM BKN200=



000
FTUS41 KPHI 030532
TAFABE
TAF
KABE 030532Z 0306/0406 VRB02KT P6SM SCT070
     FM031400 23006KT P6SM SCT250
     FM031600 22010G18KT P6SM SCT050
     FM040000 20006KT P6SM BKN200=



000
FTUS41 KPHI 030532
TAFRDG
TAF
KRDG 030532Z 0306/0406 VRB02KT P6SM SCT070
     FM031400 22006KT P6SM SCT250
     FM031600 22010G18KT P6SM SCT050
     FM032200 20006KT P6SM FEW050 BKN200=



000
FTUS41 KPHI 030532
TAFPHL
TAF
KPHL 030532Z 0306/0412 22004KT P6SM SKC
     FM031200 23006KT P6SM SCT250
     FM031600 23010G18KT P6SM SCT050
     FM040000 22008KT P6SM BKN200=



000
FTUS41 KPHI 030532
TAFACY
TAF
KACY 030532Z 0306/0406 18005KT P6SM SKC
     FM031500 22008KT P6SM FEW050
     FM031800 20012G20KT P6SM SCT050
     FM040000 19008KT P6SM BKN200=



000
FTUS41 KPHI 030532
TAFTTN
TAF
KTTN 030532Z 0306/0406 VRB02KT P6SM SKC
     FM031300 22006KT P6SM SCT250
     FM031600 23010G18KT P6SM SCT050=



000
FTUS41 KPHI 030532
TAFTTN
TAF

FM032200
 21008KT P6SM FEW050 BKN200=



000
FTUS41 KPHI 030532
TAFILG
TAF
KILG 030532Z 0306/0406 VRB03KT P6SM SKC
     FM031200 21005KT P6SM SCT250
     FM031600 21011G18KT P6SM SCT050
     FM040000 19008KT P6SM BKN200=



000
FTUS41 KPHI 030532
TAFMIV
TAF
KMIV 030532Z 0306/0406 VRB02KT P6SM SKC
     FM031500 23009KT P6SM SCT050
     FM040000 19005KT P6SM BKN200=



000
FTUS41 KPHI 030151 AAB
TAFTTN
TAF AMD
KTTN 030151Z 0302/0324 VRB02KT P6SM SKC
     FM031300 22006KT P6SM SCT250
     FM031600 23010G18KT P6SM SCT050=



000
FTUS41 KPHI 030150 AAA
TAFTTN
TAF AMD
KTTN 030150Z 0302/0324 VRB02KT P6SM SKC
     FM031300 22006KT P6SM SCT250
     FM031600 23010G18KT P6SM SCT050=



000
FTUS41 KPHI 022322
TAFMIV
TAF
KMIV 022322Z 0300/0324 24004KT P6SM SKC
     FM031200 22005KT P6SM SCT250
     FM031500 23009KT P6SM SCT050=



000
FTUS41 KPHI 022322
TAFRDG
TAF
KRDG 022322Z 0300/0324 21005KT P6SM FEW070
     FM030200 VRB02KT P6SM SKC
     FM031400 22006KT P6SM SCT250
     FM031600 22010G18KT P6SM SCT050=



000
FTUS41 KPHI 022322
TAFACY
TAF
KACY 022322Z 0300/0324 18005KT P6SM SKC
     FM031500 22008KT P6SM FEW050
     FM031800 20012G20KT P6SM SCT050=



000
FTUS41 KPHI 022322
TAFILG
TAF
KILG 022322Z 0300/0324 21005KT P6SM SKC
     FM031200 21005KT P6SM SCT250
     FM031600 21011G18KT P6SM SCT050=



000
FTUS41 KPHI 022322
TAFRDG
TAF
KRDG 022322Z 0300/0324 21005KT P6SM FEW070
     FM030200 VRB02KT P6SM SKC
     FM031400 22006KT P6SM SCT250
     FM031600 22010G18KT P6SM SCT050=



000
FTUS41 KPHI 022322
TAFTTN
TAF
KTTN 022322Z 0300/0324 24056KT P6SM SKC
     FM030200 21003KT P6SM SKC
     FM031300 22006KT P6SM SCT250
     FM031600 23010G18KT P6SM SCT050=



000
FTUS41 KPHI 022322
TAFPHL
TAF
KPHL 022322Z 0300/0406 22006KT P6SM SKC
     FM030300 22004KT P6SM SKC
     FM031200 23006KT P6SM SCT250
     FM031600 23010G18KT P6SM SCT050
     FM040000 22013KT P6SM BKN200=



000
FTUS41 KPHI 022322
TAFPNE
TAF
KPNE 022322Z 0300/0324 25005KT P6SM SKC
     FM030200 22003KT P6SM SKC
     FM031300 23006KT P6SM SCT250
     FM031600 22010G18KT P6SM SCT050=



000
FTUS41 KPHI 022322
TAFABE
TAF
KABE 022322Z 0300/0324 20005KT P6SM FEW070
     FM030200 VRB02KT P6SM SKC
     FM031400 23006KT P6SM SCT250
     FM031600 22010G18KT P6SM SCT050=



000
FTUS41 KPHI 022322
TAFPHL
TAF
KPHL 022322Z 0300/0406 22006KT P6SM SKC
     FM030300 22004KT P6SM SKC
     FM031200 23006KT P6SM SCT250
     FM031600 23010G18KT P6SM SCT050
     FM040000 22013KT P6SM BKN200=



000
FTUS41 KPHI 022322
TAFACY
TAF
KACY 022322Z 0300/0324 18005KT P6SM SKC
     FM031500 22008KT P6SM FEW050
     FM031800 20012G20KT P6SM SCT050=



000
FTUS41 KPHI 022322
TAFABE
TAF
KABE 022322Z 0300/0324 20005KT P6SM FEW070
     FM030200 VRB02KT P6SM SKC
     FM031400 23006KT P6SM SCT250
     FM031600 22010G18KT P6SM SCT050=



000
FTUS41 KPHI 022322
TAFTTN
TAF
KTTN 022322Z 0300/0324 24056KT P6SM SKC
     FM030200 21003KT P6SM SKC
     FM031300 22006KT P6SM SCT250
     FM031600 23010G18KT P6SM SCT050=



000
FTUS41 KPHI 022322
TAFPNE
TAF
KPNE 022322Z 0300/0324 25005KT P6SM SKC
     FM030200 22003KT P6SM SKC
     FM031300 23006KT P6SM SCT250
     FM031600 22010G18KT P6SM SCT050=



000
FTUS41 KPHI 022322
TAFMIV
TAF
KMIV 022322Z 0300/0324 24004KT P6SM SKC
     FM031200 22005KT P6SM SCT250
     FM031500 23009KT P6SM SCT050=



000
FTUS41 KPHI 022322
TAFILG
TAF
KILG 022322Z 0300/0324 21005KT P6SM SKC
     FM031200 21005KT P6SM SCT250
     FM031600 21011G18KT P6SM SCT050=



000
FTUS41 KPHI 022236 AAA
TAFPHL
TAF AMD
KPHL 022236Z 0223/0324 23007KT P6SM FEW040 BKN250
     FM030200 21005KT P6SM SCT250
     FM031600 23008G18KT P6SM SCT070=



000
FTUS41 KPHI 021723
TAFPNE
TAF
KPNE 021723Z 0218/0318 30007KT P6SM FEW060 BKN250
     FM022000 26007KT P6SM FEW060 BKN250
     FM030300 VRB03KT P6SM SCT250
     FM031300 22005KT P6SM SCT250
     FM031700 23008G17KT P6SM SCT070=



000
FTUS41 KPHI 021723
TAFTTN
TAF
KTTN 021723Z 0218/0318 VRB04KT P6SM FEW060 BKN250
     FM022000 26005KT P6SM FEW060 BKN250
     FM030300 VRB03KT P6SM SCT250
     FM031400 22005KT P6SM SCT250
     FM031700 23008G17KT P6SM SCT070=



000
FTUS41 KPHI 021723
TAFILG
TAF
KILG 021723Z 0218/0318 26005KT P6SM FEW060 BKN250
     FM030000 20004KT P6SM SCT250
     FM031600 21008G17KT P6SM SCT070=



000
FTUS41 KPHI 021723
TAFABE
TAF
KABE 021723Z 0218/0318 25008KT P6SM SCT060 BKN250
     FM030300 VRB02KT P6SM SCT250
     FM031400 22005KT P6SM SCT250
     FM031700 23008G18KT P6SM SCT070=



000
FTUS41 KPHI 021723
TAFRDG
TAF
KRDG 021723Z 0218/0318 VRB04KT P6SM SCT060 BKN250
     FM022000 25007KT P6SM FEW060 BKN250
     FM030200 VRB02KT P6SM SCT250
     FM031400 22005KT P6SM SCT250
     FM031700 23008G18KT P6SM SCT070=



000
FTUS41 KPHI 021723
TAFMIV
TAF
KMIV 021723Z 0218/0318 VRB04KT P6SM FEW060 BKN250
     FM022000 27005KT P6SM FEW060 BKN250
     FM030000 00000KT P6SM SCT250
     FM031400 22006KT P6SM SCT060=



000
FTUS41 KPHI 021723
TAFPHL
TAF
KPHL 021723Z 0218/0324 26007KT P6SM FEW060 BKN250
     FM030200 21005KT P6SM SCT250
     FM031600 23008G18KT P6SM SCT070=



000
FTUS41 KPHI 021723
TAFACY
TAF
KACY 021723Z 0218/0318 28005KT P6SM FEW060 BKN250
     FM022000 22010KT P6SM FEW060 BKN250
     FM030000 20004KT P6SM SCT250
     FM031700 21010G18KT P6SM SCT060=



000
FTUS41 KPHI 021441 AAA
TAFTTN
TAF AMD
KTTN 021441Z 0215/0312 VRB04KT P6SM SKC
     FM021700 28005KT P6SM SCT250
     FM030000 VRB03KT P6SM SCT250=



000
FTUS41 KPHI 021441 AAA
TAFRDG
TAF AMD
KRDG 021441Z 0215/0312 VRB02KT P6SM SKC
     FM021700 25007KT P6SM SCT250
     FM030000 VRB03KT P6SM SCT250=



000
FTUS41 KPHI 021441 AAA
TAFMIV
TAF AMD
KMIV 021441Z 0215/0312 33003KT P6SM BKN100
     FM021700 29006KT P6SM BKN100
     FM022000 22006KT P6SM SCT100
     FM030000 VRB02KT P6SM SCT250=



000
FTUS41 KPHI 021441 AAA
TAFPHL
TAF AMD
KPHL 021441Z 0215/0318 VRB04KT P6SM FEW100
     FM021700 25007KT P6SM SCT250
     FM030300 20005KT P6SM SCT250
     FM031500 22010KT P6SM SCT050=



000
FTUS41 KPHI 021441 AAA
TAFABE
TAF AMD
KABE 021441Z 0215/0312 VRB03KT P6SM SKC
     FM021700 25007KT P6SM SCT250
     FM030000 VRB03KT P6SM SCT250=



000
FTUS41 KPHI 021441 AAA
TAFPNE
TAF AMD
KPNE 021441Z 0215/0312 VRB03KT P6SM FEW100
     FM021700 27007KT P6SM SCT250
     FM030000 VRB03KT P6SM SCT250=



000
FTUS41 KPHI 021441 AAA
TAFILG
TAF AMD
KILG 021441Z 0215/0312 VRB03KT P6SM FEW100
     FM021700 26005KT P6SM SCT250
     FM022000 17007KT P6SM SCT250
     FM030000 20004KT P6SM SKC=



000
FTUS41 KPHI 021441 AAA
TAFMIV
TAF AMD
KMIV 021441Z 0215/0312 33003KT P6SM BKN100
     FM021700 29006KT P6SM BKN100
     FM022000 22006KT P6SM SCT100
     FM030000 VRB02KT P6SM SCT250=



000
FTUS41 KPHI 021441 AAA
TAFILG
TAF AMD
KILG 021441Z 0215/0312 VRB03KT P6SM FEW100
     FM021700 26005KT P6SM SCT250
     FM022000 17007KT P6SM SCT250
     FM030000 20004KT P6SM SKC=



000
FTUS41 KPHI 021441 AAA
TAFPNE
TAF AMD
KPNE 021441Z 0215/0312 VRB03KT P6SM FEW100
     FM021700 27007KT P6SM SCT250
     FM030000 VRB03KT P6SM SCT250=



000
FTUS41 KPHI 021441 AAA
TAFABE
TAF AMD
KABE 021441Z 0215/0312 VRB03KT P6SM SKC
     FM021700 25007KT P6SM SCT250
     FM030000 VRB03KT P6SM SCT250=



000
FTUS41 KPHI 021441 AAA
TAFPHL
TAF AMD
KPHL 021441Z 0215/0318 VRB04KT P6SM FEW100
     FM021700 25007KT P6SM SCT250
     FM030300 20005KT P6SM SCT250
     FM031500 22010KT P6SM SCT050=



000
FTUS41 KPHI 021441 AAA
TAFTTN
TAF AMD
KTTN 021441Z 0215/0312 VRB04KT P6SM SKC
     FM021700 28005KT P6SM SCT250
     FM030000 VRB03KT P6SM SCT250=



000
FTUS41 KPHI 021441 AAA
TAFRDG
TAF AMD
KRDG 021441Z 0215/0312 VRB02KT P6SM SKC
     FM021700 25007KT P6SM SCT250
     FM030000 VRB03KT P6SM SCT250=



000
FTUS41 KPHI 021127
TAFACY
TAF
KACY 021127Z 0212/0312 32005KT P6SM SKC
     FM021800 16010KT P6SM SKC
     FM030000 20004KT P6SM SKC=



000
FTUS41 KPHI 021127
TAFILG
TAF
KILG 021127Z 0212/0312 VRB03KT P6SM SKC
     FM021400 26005KT P6SM SKC
     FM022000 17007KT P6SM SKC
     FM030000 20004KT P6SM SKC=



000
FTUS41 KPHI 021127
TAFPHL
TAF
KPHL 021127Z 0212/0318 31005KT P6SM FEW100
     FM021400 26007KT P6SM SKC
     FM022300 23005KT P6SM SKC
     FM030300 19005KT P6SM SKC
     FM031500 22010KT P6SM SCT050=



000
FTUS41 KPHI 021127
TAFMIV
TAF
KMIV 021127Z 0212/0312 VRB03KT P6SM FEW100
     FM021600 29006KT P6SM SKC
     FM022000 22006KT P6SM SKC
     FM030000 VRB02KT P6SM SKC=



000
FTUS41 KPHI 021127
TAFTTN
TAF
KTTN 021127Z 0212/0312 31004KT P6SM SKC
     FM021500 28005KT P6SM SKC
     FM030000 VRB03KT P6SM SKC=



000
FTUS41 KPHI 021127
TAFABE
TAF
KABE 021127Z 0212/0312 VRB03KT P6SM SKC
     FM021500 25007KT P6SM SKC
     FM030000 VRB03KT P6SM SKC=



000
FTUS41 KPHI 021127
TAFPNE
TAF
KPNE 021127Z 0212/0312 VRB03KT P6SM FEW100
     FM021500 27007KT P6SM SKC
     FM030000 VRB03KT P6SM SKC=



000
FTUS41 KPHI 021127
TAFRDG
TAF
KRDG 021127Z 0212/0312 VRB02KT P6SM SKC
     FM021500 25007KT P6SM SKC
     FM030000 VRB03KT P6SM SKC=



000
FTUS41 KPHI 020853 AAA
TAFPHL
TAF AMD
KPHL 020853Z 0209/0312 31005KT P6SM FEW100
     FM021400 26005KT P6SM SKC
     FM022300 23005KT P6SM SKC
     FM030300 19005KT P6SM SKC=



000
FTUS41 KPHI 020539
TAFRDG
TAF
KRDG 020539Z 0206/0306 VRB02KT P6SM SKC
     FM021500 25007KT P6SM SKC
     FM030000 VRB03KT P6SM SKC=



000
FTUS41 KPHI 020539
TAFACY
TAF
KACY 020539Z 0206/0306 VRB02KT P6SM SKC
     FM021400 32005KT P6SM SKC
     FM021800 16010KT P6SM SKC
     FM022300 18008KT P6SM SKC=



000
FTUS41 KPHI 020539
TAFMIV
TAF
KMIV 020539Z 0206/0306 VRB03KT P6SM FEW100
     FM021600 29004KT P6SM SKC
     FM022200 19006KT P6SM SKC=



000
FTUS41 KPHI 020539
TAFPHL
TAF
KPHL 020539Z 0206/0312 VRB04KT P6SM FEW100
     FM021400 26005KT P6SM SKC
     FM022300 23005KT P6SM SKC
     FM030300 19005KT P6SM SKC=



000
FTUS41 KPHI 020539
TAFPNE
TAF
KPNE 020539Z 0206/0306 VRB03KT P6SM FEW100
     FM021500 27007KT P6SM SKC
     FM030000 VRB03KT P6SM SKC=



000
FTUS41 KPHI 020539
TAFACY
TAF
KACY 020539Z 0206/0306 VRB02KT P6SM SKC
     FM021400 32005KT P6SM SKC
     FM021800 16010KT P6SM SKC
     FM022300 18008KT P6SM SKC=



000
FTUS41 KPHI 020539
TAFMIV
TAF
KMIV 020539Z 0206/0306 VRB03KT P6SM FEW100
     FM021600 29004KT P6SM SKC
     FM022200 19006KT P6SM SKC=



000
FTUS41 KPHI 020539
TAFPNE
TAF
KPNE 020539Z 0206/0306 VRB03KT P6SM FEW100
     FM021500 27007KT P6SM SKC
     FM030000 VRB03KT P6SM SKC=



000
FTUS41 KPHI 020539
TAFPHL
TAF
KPHL 020539Z 0206/0312 VRB04KT P6SM FEW100
     FM021400 26005KT P6SM SKC
     FM022300 23005KT P6SM SKC
     FM030300 19005KT P6SM SKC=



000
FTUS41 KPHI 020539
TAFILG
TAF
KILG 020539Z 0206/0306 VRB03KT P6SM SKC
     FM021400 26005KT P6SM SKC
     FM022000 17007KT P6SM SKC
     FM030000 20004KT P6SM SKC=



000
FTUS41 KPHI 020539
TAFILG
TAF
KILG 020539Z 0206/0306 VRB03KT P6SM SKC
     FM021400 26005KT P6SM SKC
     FM022000 17007KT P6SM SKC
     FM030000 20004KT P6SM SKC=



000
FTUS41 KPHI 020539
TAFTTN
TAF
KTTN 020539Z 0206/0306 VRB02KT P6SM SKC
     FM021500 26005KT P6SM SKC
     FM030000 VRB03KT P6SM SKC=



000
FTUS41 KPHI 020539
TAFABE
TAF
KABE 020539Z 0206/0306 VRB03KT P6SM SKC
     FM021400 25007KT P6SM SKC
     FM030000 VRB03KT P6SM SKC=



000
FTUS41 KPHI 012324
TAFPNE
TAF
KPNE 012324Z 0200/0224 29008KT P6SM FEW060
     FM021400 29005KT P6SM SKC
     FM021800 26008KT P6SM SKC
     FM022200 23005KT P6SM SKC=



000
FTUS41 KPHI 012324
TAFMIV
TAF
KMIV 012324Z 0200/0224 27004KT P6SM SKC
     FM021400 33004KT P6SM SKC
     FM021800 27005KT P6SM SKC
     FM022200 22005KT P6SM SKC=



000
FTUS41 KPHI 012324
TAFPHL
TAF
KPHL 012324Z 0200/0306 28008KT P6SM FEW060
     FM021400 29005KT P6SM SKC
     FM021800 26008KT P6SM SKC
     FM022300 23005KT P6SM SKC=



000
FTUS41 KPHI 012324
TAFTTN
TAF
KTTN 012324Z 0200/0224 32006KT P6SM FEW060
     FM021400 29005KT P6SM SKC
     FM021800 26008KT P6SM SKC
     FM022200 22004KT P6SM SKC=



000
FTUS41 KPHI 012324
TAFRDG
TAF
KRDG 012324Z 0200/0224 27005KT P6SM FEW070
     FM021400 27007KT P6SM SKC
     FM022200 22004KT P6SM SKC=



000
FTUS41 KPHI 012324
TAFILG
TAF
KILG 012324Z 0200/0224 27005KT P6SM SKC
     FM021400 31005KT P6SM SKC
     FM021800 23007KT P6SM SKC
     FM022300 20004KT P6SM SKC=



000
FTUS41 KPHI 012324
TAFMIV
TAF
KMIV 012324Z 0200/0224 27004KT P6SM SKC
     FM021400 33004KT P6SM SKC
     FM021800 27005KT P6SM SKC
     FM022200 22005KT P6SM SKC=



000
FTUS41 KPHI 012324
TAFTTN
TAF
KTTN 012324Z 0200/0224 32006KT P6SM FEW060
     FM021400 29005KT P6SM SKC
     FM021800 26008KT P6SM SKC
     FM022200 22004KT P6SM SKC=



000
FTUS41 KPHI 012324
TAFPNE
TAF
KPNE 012324Z 0200/0224 29008KT P6SM FEW060
     FM021400 29005KT P6SM SKC
     FM021800 26008KT P6SM SKC
     FM022200 23005KT P6SM SKC=



000
FTUS41 KPHI 012324
TAFPHL
TAF
KPHL 012324Z 0200/0306 28008KT P6SM FEW060
     FM021400 29005KT P6SM SKC
     FM021800 26008KT P6SM SKC
     FM022300 23005KT P6SM SKC=



000
FTUS41 KPHI 012324
TAFABE
TAF
KABE 012324Z 0200/0224 27005KT P6SM FEW070
     FM021400 27007KT P6SM SKC
     FM022200 22004KT P6SM SKC=



000
FTUS41 KPHI 012324
TAFABE
TAF
KABE 012324Z 0200/0224 27005KT P6SM FEW070
     FM021400 27007KT P6SM SKC
     FM022200 22004KT P6SM SKC=



000
FTUS41 KPHI 012324
TAFACY
TAF
KACY 012324Z 0200/0224 26005KT P6SM SKC
     FM021400 32005KT P6SM SKC
     FM021800 16010KT P6SM SKC
     FM022300 18008KT P6SM SKC=



000
FTUS41 KPHI 012324
TAFRDG
TAF
KRDG 012324Z 0200/0224 27005KT P6SM FEW070
     FM021400 27007KT P6SM SKC
     FM022200 22004KT P6SM SKC=



000
FTUS41 KPHI 012324
TAFACY
TAF
KACY 012324Z 0200/0224 26005KT P6SM SKC
     FM021400 32005KT P6SM SKC
     FM021800 16010KT P6SM SKC
     FM022300 18008KT P6SM SKC=



000
FTUS41 KPHI 012324
TAFILG
TAF
KILG 012324Z 0200/0224 27005KT P6SM SKC
     FM021400 31005KT P6SM SKC
     FM021800 23007KT P6SM SKC
     FM022300 20004KT P6SM SKC=



000
FTUS41 KPHI 012105 AAA
TAFPHL
TAF AMD
KPHL 012105Z 0121/0224 26012KT P6SM SCT060
     FM020000 29007KT P6SM SKC
     FM020600 33004KT P6SM SKC
     FM021500 28006KT P6SM FEW050=



000
FTUS41 KPHI 012102 AAA
TAFILG
TAF AMD
KILG 012102Z 0121/0218 29012KT P6SM SCT060 BKN100
      TEMPO 0121/0122 -SHRA BKN060
     FM020000 30006KT P6SM SKC
     FM020600 33004KT P6SM SKC
     FM021400 31005KT P6SM SKC=



000
FTUS41 KPHI 011730
TAFMIV
TAF
KMIV 011730Z 0118/0218 28011G17KT P6SM FEW050 SCT100
     FM012300 27003KT P6SM SKC
     FM020600 00000KT 6SM BR SKC
     FM021400 34003KT P6SM SKC=



000
FTUS41 KPHI 011730
TAFABE
TAF
KABE 011730Z 0118/0218 26012G18KT P6SM SCT050
     FM012300 30006KT P6SM SKC
     FM020300 VRB03KT P6SM SKC
     FM021400 29005KT P6SM SKC=



000
FTUS41 KPHI 011730
TAFRDG
TAF
KRDG 011730Z 0118/0218 28010G18KT P6SM SCT040
     FM012300 30006KT P6SM SKC
     FM020300 00000KT P6SM SKC
     FM021400 29005KT P6SM SKC=



000
FTUS41 KPHI 011730
TAFILG
TAF
KILG 011730Z 0118/0218 28010G18KT P6SM FEW050 SCT100
     FM020000 30006KT P6SM SKC
     FM020600 33004KT P6SM SKC
     FM021400 31005KT P6SM SKC=



000
FTUS41 KPHI 011730
TAFPHL
TAF
KPHL 011730Z 0118/0224 27012G18KT P6SM FEW060 SCT120
     FM020000 29007KT P6SM SKC
     FM020600 33004KT P6SM SKC
     FM021500 28006KT P6SM FEW050=



000
FTUS41 KPHI 011730
TAFTTN
TAF
KTTN 011730Z 0118/0218 27010G18KT P6SM FEW050 SCT080
     FM012300 30004KT P6SM SKC
     FM020600 VRB02KT P6SM SKC
     FM021400 32005KT P6SM SKC=



000
FTUS41 KPHI 011730
TAFPNE
TAF
KPNE 011730Z 0118/0218 28010G20KT P6SM FEW050 SCT090
     FM020000 30006KT P6SM SKC
     FM020600 33003KT P6SM SKC
     FM021500 29005KT P6SM SKC=



000
FTUS41 KPHI 011730
TAFACY
TAF
KACY 011730Z 0118/0218 27010G18KT P6SM FEW050 SCT100
     FM012300 27005KT P6SM SKC
     FM020600 VRB02KT P6SM SKC
     FM021400 32005KT P6SM SKC=



000
FTUS41 KPHI 011454 AAA
TAFPHL
TAF AMD
KPHL 011454Z 0115/0218 28010KT P6SM BKN100
     FM011700 27011G21KT P6SM FEW050 BKN100
     FM020000 29007KT P6SM SKC
     FM020600 VRB04KT P6SM SKC
     FM021500 28008KT P6SM FEW050=



000
FTUS41 KPHI 011121
TAFPHL
TAF
KPHL 011121Z 0112/0218 23006KT P6SM FEW100
     FM011500 27011G21KT P6SM FEW050 SCT250
     FM020000 29007KT P6SM SKC
     FM020600 VRB04KT P6SM SKC
     FM021500 28008KT P6SM FEW050=



000
FTUS41 KPHI 011121
TAFMIV
TAF
KMIV 011121Z 0112/0212 25004KT P6SM SCT100
     FM011500 28011G18KT P6SM FEW050
     FM012300 27003KT P6SM SKC
     FM020600 00000KT 6SM BR SKC=



000
FTUS41 KPHI 011121
TAFILG
TAF
KILG 011121Z 0112/0212 26006KT P6SM FEW100
     FM011500 28011G21KT P6SM FEW050
     FM020000 30006KT P6SM SKC
     FM020600 VRB04KT P6SM SKC=



000
FTUS41 KPHI 011121
TAFPNE
TAF
KPNE 011121Z 0112/0212 25006KT P6SM FEW100
     FM011500 27012G20KT P6SM FEW050
     FM020000 30006KT P6SM SKC
     FM020600 VRB03KT P6SM SKC=



000
FTUS41 KPHI 011121
TAFTTN
TAF
KTTN 011121Z 0112/0212 25004KT P6SM FEW100
     FM011500 27010G19KT P6SM FEW050
     FM012300 30004KT P6SM SKC
     FM020600 VRB02KT P6SM SKC=



000
FTUS41 KPHI 011121
TAFRDG
TAF
KRDG 011121Z 0112/0212 VRB02KT P6SM FEW100
     FM011500 28011G18KT P6SM FEW050
     FM012300 30006KT P6SM SKC
     FM020300 VRB03KT P6SM SKC=



000
FTUS41 KPHI 011121
TAFACY
TAF
KACY 011121Z 0112/0212 25006KT P6SM SCT100
     FM011500 27011G20KT P6SM FEW050
     FM012300 27005KT P6SM SKC
     FM020600 VRB02KT P6SM SKC=



000
FTUS41 KPHI 011121
TAFPHL
TAF
KPHL 011121Z 0112/0218 23006KT P6SM FEW100
     FM011500 27011G21KT P6SM FEW050 SCT250
     FM020000 29007KT P6SM SKC
     FM020600 VRB04KT P6SM SKC
     FM021500 28008KT P6SM FEW050=



000
FTUS41 KPHI 011121
TAFABE
TAF
KABE 011121Z 0112/0212 25004KT P6SM SCT100
     FM011500 27011G18KT P6SM FEW050
     FM012300 30006KT P6SM SKC
     FM020300 VRB03KT P6SM SKC=



000
FTUS41 KPHI 011121
TAFILG
TAF
KILG 011121Z 0112/0212 26006KT P6SM FEW100
     FM011500 28011G21KT P6SM FEW050
     FM020000 30006KT P6SM SKC
     FM020600 VRB04KT P6SM SKC=



000
FTUS41 KPHI 011121
TAFMIV
TAF
KMIV 011121Z 0112/0212 25004KT P6SM SCT100
     FM011500 28011G18KT P6SM FEW050
     FM012300 27003KT P6SM SKC
     FM020600 00000KT 6SM BR SKC=



000
FTUS41 KPHI 011121
TAFABE
TAF
KABE 011121Z 0112/0212 25004KT P6SM SCT100
     FM011500 27011G18KT P6SM FEW050
     FM012300 30006KT P6SM SKC
     FM020300 VRB03KT P6SM SKC=



000
FTUS41 KPHI 011121
TAFTTN
TAF
KTTN 011121Z 0112/0212 25004KT P6SM FEW100
     FM011500 27010G19KT P6SM FEW050
     FM012300 30004KT P6SM SKC
     FM020600 VRB02KT P6SM SKC=



000
FTUS41 KPHI 011121
TAFRDG
TAF
KRDG 011121Z 0112/0212 VRB02KT P6SM FEW100
     FM011500 28011G18KT P6SM FEW050
     FM012300 30006KT P6SM SKC
     FM020300 VRB03KT P6SM SKC=



000
FTUS41 KPHI 011121
TAFACY
TAF
KACY 011121Z 0112/0212 25006KT P6SM SCT100
     FM011500 27011G20KT P6SM FEW050
     FM012300 27005KT P6SM SKC
     FM020600 VRB02KT P6SM SKC=



000
FTUS41 KPHI 011121
TAFPNE
TAF
KPNE 011121Z 0112/0212 25006KT P6SM FEW100
     FM011500 27012G20KT P6SM FEW050
     FM020000 30006KT P6SM SKC
     FM020600 VRB03KT P6SM SKC=



000
FTUS41 KPHI 010834 AAA
TAFPHL
TAF AMD
KPHL 010834Z 0109/0212 23006KT P6SM FEW100
     FM011500 27011G21KT P6SM FEW050
     FM020000 29007KT P6SM SKC=



000
FTUS41 KPHI 010533
TAFRDG
TAF
KRDG 010533Z 0106/0206 VRB02KT P6SM SKC
     FM011400 28011G18KT P6SM FEW050
     FM012300 30004KT P6SM SKC=



000
FTUS41 KPHI 010533
TAFPHL
TAF
KPHL 010533Z 0106/0212 27005KT P6SM SKC
     FM011500 27011G21KT P6SM FEW050
     FM020000 29007KT P6SM SKC=



000
FTUS41 KPHI 010533
TAFABE
TAF
KABE 010533Z 0106/0206 25004KT P6SM SKC
     FM011400 27011G18KT P6SM FEW050
     FM012300 30004KT P6SM SKC=



000
FTUS41 KPHI 010533
TAFACY
TAF
KACY 010533Z 0106/0206 25004KT P6SM SKC
     FM011500 27011G20KT P6SM FEW050
     FM012300 27005KT P6SM SKC=



000
FTUS41 KPHI 010533
TAFTTN
TAF
KTTN 010533Z 0106/0206 25004KT P6SM SKC
     FM011400 27010G19KT P6SM FEW050
     FM012300 30004KT P6SM SKC=



000
FTUS41 KPHI 010533
TAFPNE
TAF
KPNE 010533Z 0106/0206 25005KT P6SM SKC
     FM011400 27012G20KT P6SM FEW050
     FM020000 30006KT P6SM SKC=



000
FTUS41 KPHI 010533
TAFILG
TAF
KILG 010533Z 0106/0206 26004KT P6SM SKC
     FM011500 28011G21KT P6SM FEW050
     FM020000 30006KT P6SM SKC=



000
FTUS41 KPHI 010533
TAFMIV
TAF
KMIV 010533Z 0106/0206 VRB03KT P6SM SKC
      TEMPO 0110/0112 6SM BR
     FM011500 28011G18KT P6SM FEW050
     FM012300 27003KT P6SM SKC=



000
FTUS41 KPHI 312320
TAFILG
TAF
KILG 312320Z 0100/0124 26004KT P6SM SKC
     FM011500 28011G21KT P6SM FEW050=



000
FTUS41 KPHI 312320
TAFRDG
TAF
KRDG 312320Z 0100/0124 25004KT P6SM SKC
     FM011400 28011G18KT P6SM FEW050=



000
FTUS41 KPHI 312320
TAFMIV
TAF
KMIV 312320Z 0100/0124 VRB06KT P6SM SKC
     FM011400 28011KT P6SM FEW050=



000
FTUS41 KPHI 312320
TAFACY
TAF
KACY 312320Z 0100/0124 25004KT P6SM SKC
     FM011400 27011KT P6SM FEW050=



000
FTUS41 KPHI 312320
TAFPHL
TAF
KPHL 312320Z 0100/0206 27005KT P6SM SKC
     FM011500 27011G21KT P6SM FEW050
     FM020000 25009KT P6SM SKC=



000
FTUS41 KPHI 312320
TAFTTN
TAF
KTTN 312320Z 0100/0124 25004KT P6SM SKC
     FM011400 27010G19KT P6SM FEW050=



000
FTUS41 KPHI 312320
TAFPNE
TAF
KPNE 312320Z 0100/0124 25005KT P6SM SKC
     FM011400 27012G20KT P6SM FEW050=



000
FTUS41 KPHI 312320
TAFABE
TAF
KABE 312320Z 0100/0124 25004KT P6SM SKC
     FM011400 27011G18KT P6SM FEW050=



000
FTUS41 KPHI 312051 AAA
TAFPHL
TAF AMD
KPHL 312051Z 3121/0124 28011KT P6SM SCT070
     FM010100 24006KT P6SM SKC
     FM011400 26011KT P6SM FEW050
     FM011800 27012G18KT P6SM SCT060=



000
FTUS41 KPHI 311735
TAFTTN
TAF
KTTN 311735Z 3118/0118 30007KT P6SM SCT060
     FM010100 VRB03KT P6SM SKC
     FM011300 27010KT P6SM FEW050=



000
FTUS41 KPHI 311735
TAFPHL
TAF
KPHL 311735Z 3118/0124 28010KT P6SM SCT060
     FM010100 24006KT P6SM SKC
     FM011400 26011KT P6SM FEW050
     FM011800 27012G18KT P6SM SCT060=



000
FTUS41 KPHI 311735
TAFILG
TAF
KILG 311735Z 3118/0118 30009KT P6SM SCT060
     FM010100 24004KT P6SM SKC
     FM011300 29009KT P6SM FEW050=



000
FTUS41 KPHI 311735
TAFRDG
TAF
KRDG 311735Z 3118/0118 28008KT P6SM SCT060
     FM010100 VRB02KT P6SM SKC
     FM011300 28008KT P6SM FEW050=



000
FTUS41 KPHI 311735
TAFABE
TAF
KABE 311735Z 3118/0118 29007KT P6SM SCT060
     FM010100 25004KT P6SM SKC
     FM011300 27009KT P6SM FEW050=



000
FTUS41 KPHI 311735
TAFPNE
TAF
KPNE 311735Z 3118/0118 29007KT P6SM SCT060
     FM010100 25003KT P6SM SKC
     FM011300 27009KT P6SM FEW050=



000
FTUS41 KPHI 311735
TAFMIV
TAF
KMIV 311735Z 3118/0118 29007KT P6SM FEW060
     FM010000 VRB02KT P6SM SKC
     FM011300 28007KT P6SM FEW050=



000
FTUS41 KPHI 311735
TAFACY
TAF
KACY 311735Z 3118/0118 31009KT P6SM FEW060
     FM010100 23004KT P6SM SKC
     FM011300 27009KT P6SM FEW050=



000
FTUS41 KPHI 311735
TAFTTN
TAF
KTTN 311735Z 3118/0118 30007KT P6SM SCT060
     FM010100 VRB03KT P6SM SKC
     FM011300 27010KT P6SM FEW050=



000
FTUS41 KPHI 311735
TAFABE
TAF
KABE 311735Z 3118/0118 29007KT P6SM SCT060
     FM010100 25004KT P6SM SKC
     FM011300 27009KT P6SM FEW050=



000
FTUS41 KPHI 311735
TAFPHL
TAF
KPHL 311735Z 3118/0124 28010KT P6SM SCT060
     FM010100 24006KT P6SM SKC
     FM011400 26011KT P6SM FEW050
     FM011800 27012G18KT P6SM SCT060=



000
FTUS41 KPHI 311735
TAFACY
TAF
KACY 311735Z 3118/0118 31009KT P6SM FEW060
     FM010100 23004KT P6SM SKC
     FM011300 27009KT P6SM FEW050=



000
FTUS41 KPHI 311735
TAFILG
TAF
KILG 311735Z 3118/0118 30009KT P6SM SCT060
     FM010100 24004KT P6SM SKC
     FM011300 29009KT P6SM FEW050=



000
FTUS41 KPHI 311735
TAFMIV
TAF
KMIV 311735Z 3118/0118 29007KT P6SM FEW060
     FM010000 VRB02KT P6SM SKC
     FM011300 28007KT P6SM FEW050=



000
FTUS41 KPHI 311735
TAFPNE
TAF
KPNE 311735Z 3118/0118 29007KT P6SM SCT060
     FM010100 25003KT P6SM SKC
     FM011300 27009KT P6SM FEW050=



000
FTUS41 KPHI 311735
TAFRDG
TAF
KRDG 311735Z 3118/0118 28008KT P6SM SCT060
     FM010100 VRB02KT P6SM SKC
     FM011300 28008KT P6SM FEW050=



    US Dept of Commerce
    National Oceanic and Atmospheric Administration
    National Weather Service
    1325 East West Highway
    Silver Spring, MD 20910
    Page Author: NWS Internet Services Team
Disclaimer
Information Quality
Credits
Glossary
Privacy Policy
Freedom of Information Act (FOIA)
About Us
Career Opportunities